Time;durP1;ratioP1;P1;durP2;ratioP2;P2;SDS_P1;SDS_P2;PMS_P1;PMS_P2;Temp;Humidity;BMP_temperature;BMP_pressure;BME280_temperature;BME280_humidity;BME280_pressure;Samples;Min_cycle;Max_cycle;Signal;HPM_P1;HPM_P2
2023/06/09 00:01:37;;;;;;;;;;;;;;;;;;5010862;28;89567;-77
2023/06/09 00:04:03;;;;;;;;;;;;;;;;;;5008852;28;90698;-77
2023/06/09 00:06:30;;;;;;;;;;;;;;;;;;5008662;28;89235;-77
2023/06/09 00:08:57;;;;;;;;;;;;;;;;;;5008841;28;90361;-76
2023/06/09 00:11:22;;;;;;;;;;;;;;;;;;5009043;28;89479;-77
2023/06/09 00:13:47;;;;;;;;;;;;;;;;;;5008088;28;89529;-77
2023/06/09 00:16:12;;;;;;;;;;;;;;;;;;5007053;28;90317;-76
2023/06/09 00:18:40;;;;;;;;;;;;;;;;;;5008484;28;89490;-77
2023/06/09 00:21:05;;;;;;;;;;;;;;;;;;5008416;28;89343;-77
2023/06/09 00:23:30;;;;;;;;;;;;;;;;;;5011345;28;89272;-77
2023/06/09 00:25:56;;;;;;;;;;;;;;;;;;5008233;28;89965;-77
2023/06/09 00:28:21;;;;;;;;;;;;;;;;;;5007733;28;90760;-77
2023/06/09 00:30:46;;;;;;;;;;;;;;;;;;5008404;28;90355;-77
2023/06/09 00:33:11;;;;;;;;;;;;;;;;;;5007522;28;89080;-77
2023/06/09 00:35:37;;;;;;;;;;;;;;;;;;5008061;28;89277;-76
2023/06/09 00:38:02;;;;;;;;;;;;;;;;;;5007870;28;89469;-77
2023/06/09 00:40:27;;;;;;;;;;;;;;;;;;5006871;28;90253;-77
2023/06/09 00:42:52;;;;;;;;;;;;;;;;;;5007879;28;89617;-77
2023/06/09 00:45:18;;;;;;;;;;;;;;;;;;5011298;28;89547;-77
2023/06/09 00:47:43;;;;;;;;;;;;;;;;;;5007526;28;89144;-77
2023/06/09 00:50:11;;;;;;;;;;;;;;;;;;5008221;28;89826;-77
2023/06/09 00:52:36;;;;;;;;;;;;;;;;;;5008094;28;89186;-77
2023/06/09 00:55:02;;;;;;;;;;;;;;;;;;5008293;28;89018;-77
2023/06/09 00:57:29;;;;;;;;;;;;;;;;;;5008284;28;89599;-77
2023/06/09 00:59:55;;;;;;;;;;;;;;;;;;5008162;28;89648;-77
2023/06/09 01:02:21;;;;;;;;;;;;;;;;;;5008270;28;89485;-77
2023/06/09 01:04:49;;;;;;;;;;;;;;;;;;5009163;28;91438;-78
2023/06/09 01:07:17;;;;;;;;;;;;;;;;;;5009666;28;89619;-77
2023/06/09 01:09:45;;;;;;;;;;;;;;;;;;5006539;28;92265;-77
2023/06/09 01:12:22;;;;;;;;;;;;;;;;;;5008067;28;89200;-76
2023/06/09 01:15:10;;;;;;;;;;;;;;;;;;5007577;28;89061;-77
2023/06/09 01:17:37;;;;;;;;;;;;;;;;;;5003751;28;90174;-77
2023/06/09 01:20:05;;;;;;;;;;;;;;;;;;5007717;28;89228;-77
2023/06/09 01:22:49;;;;;;;;;;;;;;;;;;5005983;28;89584;-77
2023/06/09 01:25:34;;;;;;;;;;;;;;;;;;5007549;28;90704;-77
2023/06/09 01:28:00;;;;;;;;;;;;;;;;;;5007288;28;90237;-77
2023/06/09 01:30:32;;;;;;;;;;;;;;;;;;5009923;28;89603;-76
2023/06/09 01:32:58;;;;;;;;;;;;;;;;;;5006617;28;90418;-77
2023/06/09 01:35:24;;;;;;;;;;;;;;;;;;5005231;28;89652;-77
2023/06/09 01:37:50;;;;;;;;;;;;;;;;;;5006428;28;90958;-77
2023/06/09 01:40:15;;;;;;;;;;;;;;;;;;5007090;28;89645;-77
2023/06/09 01:42:41;;;;;;;;;;;;;;;;;;5007193;28;88963;-77
2023/06/09 01:45:06;;;;;;;;;;;;;;;;;;5005689;28;90878;-77
2023/06/09 01:47:31;;;;;;;;;;;;;;;;;;5006754;28;89775;-76
2023/06/09 01:50:04;;;;;;;;;;;;;;;;;;5010320;28;88969;-77
2023/06/09 01:52:49;;;;;;;;;;;;;;;;;;5005450;28;90158;-76
2023/06/09 01:55:18;;;;;;;;;;;;;;;;;;5007291;28;89257;-77
2023/06/09 01:58:04;;;;;;;;;;;;;;;;;;5006774;28;89498;-77
2023/06/09 02:00:30;;;;;;;;;;;;;;;;;;5006775;28;90634;-76
2023/06/09 02:02:57;;;;;;;;;;;;;;;;;;5006828;28;89475;-77
2023/06/09 02:05:23;;;;;;;;;;;;;;;;;;5004730;28;89700;-76
2023/06/09 02:07:49;;;;;;;;;;;;;;;;;;5006942;28;89550;-77
2023/06/09 02:10:15;;;;;;;;;;;;;;;;;;5006129;28;89072;-77
2023/06/09 02:12:40;;;;;;;;;;;;;;;;;;5009382;28;89668;-77
2023/06/09 02:15:06;;;;;;;;;;;;;;;;;;5007081;28;88994;-76
2023/06/09 02:17:34;;;;;;;;;;;;;;;;;;5006944;28;89105;-76
2023/06/09 02:20:00;;;;;;;;;;;;;;;;;;5006677;28;89212;-77
2023/06/09 02:22:25;;;;;;;;;;;;;;;;;;5007345;28;89052;-76
2023/06/09 02:24:51;;;;;;;;;;;;;;;;;;5007278;28;89971;-76
2023/06/09 02:27:16;;;;;;;;;;;;;;;;;;5006810;28;90348;-77
2023/06/09 02:29:41;;;;;;;;;;;;;;;;;;5006186;28;89023;-77
2023/06/09 02:32:07;;;;;;;;;;;;;;;;;;5006285;28;89617;-77
2023/06/09 02:34:32;;;;;;;;;;;;;;;;;;5009598;28;89113;-77
2023/06/09 02:36:58;;;;;;;;;;;;;;;;;;5009207;28;90653;-77
2023/06/09 02:39:23;;;;;;;;;;;;;;;;;;5010782;28;89486;-77
2023/06/09 02:41:49;;;;;;;;;;;;;;;;;;5009318;28;89075;-77
2023/06/09 02:44:14;;;;;;;;;;;;;;;;;;5009206;28;90987;-77
2023/06/09 02:46:40;;;;;;;;;;;;;;;;;;5009328;28;89635;-77
2023/06/09 02:49:06;;;;;;;;;;;;;;;;;;5008038;28;90208;-77
2023/06/09 02:51:31;;;;;;;;;;;;;;;;;;5009691;28;89535;-76
2023/06/09 02:53:56;;;;;;;;;;;;;;;;;;5008507;28;90419;-77
2023/06/09 02:56:22;;;;;;;;;;;;;;;;;;5012631;28;89027;-76
2023/06/09 02:58:48;;;;;;;;;;;;;;;;;;5009559;28;90142;-76
2023/06/09 03:01:17;;;;;;;;;;;;;;;;;;5009507;28;89042;-77
2023/06/09 03:03:43;;;;;;;;;;;;;;;;;;5009519;28;90734;-77
2023/06/09 03:06:08;;;;;;;;;;;;;;;;;;5009440;28;90324;-76
2023/06/09 03:08:33;;;;;;;;;;;;;;;;;;5009089;28;89499;-77
2023/06/09 03:10:58;;;;;;;;;;;;;;;;;;5009084;28;89628;-77
2023/06/09 03:13:24;;;;;;;;;;;;;;;;;;5008956;28;89562;-77
2023/06/09 03:15:50;;;;;;;;;;;;;;;;;;5009309;28;89070;-77
2023/06/09 03:18:15;;;;;;;;;;;;;;;;;;5012119;28;89519;-77
2023/06/09 03:20:42;;;;;;;;;;;;;;;;;;5009130;28;89499;-76
2023/06/09 03:23:08;;;;;;;;;;;;;;;;;;5009349;28;90731;-77
2023/06/09 03:25:33;;;;;;;;;;;;;;;;;;5009008;28;90426;-76
2023/06/09 03:27:58;;;;;;;;;;;;;;;;;;5008361;28;89655;-76
2023/06/09 03:30:24;;;;;;;;;;;;;;;;;;5009705;28;89732;-76
2023/06/09 03:32:49;;;;;;;;;;;;;;;;;;5009513;28;89091;-76
2023/06/09 03:35:15;;;;;;;;;;;;;;;;;;5008352;28;89449;-76
2023/06/09 03:37:40;;;;;;;;;;;;;;;;;;5009363;28;90659;-77
2023/06/09 03:40:06;;;;;;;;;;;;;;;;;;5012279;28;89250;-77
2023/06/09 03:42:31;;;;;;;;;;;;;;;;;;5008865;28;89649;-77
2023/06/09 03:44:58;;;;;;;;;;;;;;;;;;5009035;28;89693;-77
2023/06/09 03:47:24;;;;;;;;;;;;;;;;;;5008811;28;89233;-77
2023/06/09 03:49:49;;;;;;;;;;;;;;;;;;5009245;28;89748;-76
2023/06/09 03:52:14;;;;;;;;;;;;;;;;;;5009221;28;89154;-76
2023/06/09 03:54:39;;;;;;;;;;;;;;;;;;5008578;28;89342;-76
2023/06/09 03:57:05;;;;;;;;;;;;;;;;;;5009260;28;90437;-77
2023/06/09 03:59:30;;;;;;;;;;;;;;;;;;5011626;28;90568;-77
2023/06/09 04:01:55;;;;;;;;;;;;;;;;;;5008738;28;90007;-77
2023/06/09 04:04:21;;;;;;;;;;;;;;;;;;5008029;28;89345;-77
2023/06/09 04:06:46;;;;;;;;;;;;;;;;;;5007622;28;89350;-77
2023/06/09 04:09:12;;;;;;;;;;;;;;;;;;5006946;28;91018;-77
2023/06/09 04:11:38;;;;;;;;;;;;;;;;;;5008465;28;90084;-76
2023/06/09 04:14:03;;;;;;;;;;;;;;;;;;5007228;28;89421;-77
2023/06/09 04:16:28;;;;;;;;;;;;;;;;;;5008383;28;90651;-77
2023/06/09 04:18:54;;;;;;;;;;;;;;;;;;5008459;28;89226;-76
2023/06/09 04:21:19;;;;;;;;;;;;;;;;;;5011166;28;89204;-77
2023/06/09 04:23:44;;;;;;;;;;;;;;;;;;5008149;28;90373;-77
2023/06/09 04:26:13;;;;;;;;;;;;;;;;;;5008732;28;89248;-76
2023/06/09 04:28:38;;;;;;;;;;;;;;;;;;5008540;28;90652;-77
2023/06/09 04:31:06;;;;;;;;;;;;;;;;;;5008076;28;89823;-76
2023/06/09 04:33:32;;;;;;;;;;;;;;;;;;5008257;28;89040;-76
2023/06/09 04:35:57;;;;;;;;;;;;;;;;;;5008404;28;89500;-76
2023/06/09 04:38:23;;;;;;;;;;;;;;;;;;5008228;28;89357;-76
2023/06/09 04:40:49;;;;;;;;;;;;;;;;;;5008301;28;89509;-76
2023/06/09 04:43:14;;;;;;;;;;;;;;;;;;5011037;28;89528;-76
2023/06/09 04:45:39;;;;;;;;;;;;;;;;;;5007457;28;89650;-77
2023/06/09 04:48:05;;;;;;;;;;;;;;;;;;5006906;28;89435;-76
2023/06/09 04:50:32;;;;;;;;;;;;;;;;;;5007711;28;89918;-76
2023/06/09 04:52:58;;;;;;;;;;;;;;;;;;5007673;28;89144;-77
2023/06/09 04:55:26;;;;;;;;;;;;;;;;;;5007659;28;90630;-76
2023/06/09 04:57:55;;;;;;;;;;;;;;;;;;5007309;28;90218;-76
2023/06/09 05:00:20;;;;;;;;;;;;;;;;;;5007616;28;89416;-76
2023/06/09 05:02:46;;;;;;;;;;;;;;;;;;5008210;28;90715;-76
2023/06/09 05:05:12;;;;;;;;;;;;;;;;;;5011063;28;89564;-76
2023/06/09 05:07:40;;;;;;;;;;;;;;;;;;5007879;28;90446;-76
2023/06/09 05:10:09;;;;;;;;;;;;;;;;;;5007960;28;89462;-76
2023/06/09 05:12:37;;;;;;;;;;;;;;;;;;5007533;28;89685;-77
2023/06/09 05:15:03;;;;;;;;;;;;;;;;;;5008781;28;89446;-76
2023/06/09 05:17:28;;;;;;;;;;;;;;;;;;5008148;28;89431;-76
2023/06/09 05:19:53;;;;;;;;;;;;;;;;;;5006966;28;89669;-77
2023/06/09 05:22:19;;;;;;;;;;;;;;;;;;5007099;28;89708;-77
2023/06/09 05:24:44;;;;;;;;;;;;;;;;;;5007263;28;90436;-76
2023/06/09 05:27:10;;;;;;;;;;;;;;;;;;5010074;28;89062;-76
2023/06/09 05:29:37;;;;;;;;;;;;;;;;;;5007482;28;89328;-77
2023/06/09 05:32:02;;;;;;;;;;;;;;;;;;5007882;28;89054;-76
2023/06/09 05:34:27;;;;;;;;;;;;;;;;;;5006543;28;89686;-76
2023/06/09 05:36:53;;;;;;;;;;;;;;;;;;5005370;28;89637;-76
2023/06/09 05:39:18;;;;;;;;;;;;;;;;;;5006861;28;89057;-76
2023/06/09 05:41:43;;;;;;;;;;;;;;;;;;5007111;28;89574;-76
2023/06/09 05:44:08;;;;;;;;;;;;;;;;;;5007615;28;89070;-76
2023/06/09 05:46:38;;;;;;;;;;;;;;;;;;5007945;28;89969;-76
2023/06/09 05:49:03;;;;;;;;;;;;;;;;;;5010534;28;89312;-76
2023/06/09 05:51:28;;;;;;;;;;;;;;;;;;5007396;28;89019;-76
2023/06/09 05:53:53;;;;;;;;;;;;;;;;;;5007100;28;89614;-76
2023/06/09 05:56:19;;;;;;;;;;;;;;;;;;5007167;28;89877;-76
2023/06/09 05:58:45;;;;;;;;;;;;;;;;;;5006981;28;89134;-77
2023/06/09 06:01:10;;;;;;;;;;;;;;;;;;5006802;28;89526;-76
2023/06/09 06:03:36;;;;;;;;;;;;;;;;;;5006975;28;89423;-77
2023/06/09 06:06:03;;;;;;;;;;;;;;;;;;5006355;28;89564;-76
2023/06/09 06:08:28;;;;;;;;;;;;;;;;;;5009827;28;89557;-75
2023/06/09 06:10:53;;;;;;;;;;;;;;;;;;5008331;28;89574;-75
2023/06/09 06:13:19;;;;;;;;;;;;;;;;;;5010026;28;89575;-75
2023/06/09 06:15:45;;;;;;;;;;;;;;;;;;5010460;28;90300;-76
2023/06/09 06:18:10;;;;;;;;;;;;;;;;;;5010875;28;90208;-75
2023/06/09 06:20:35;;;;;;;;;;;;;;;;;;5010068;28;90653;-75
2023/06/09 06:23:01;;;;;;;;;;;;;;;;;;5010230;28;89735;-75
2023/06/09 06:25:28;;;;;;;;;;;;;;;;;;5010109;28;89644;-75
2023/06/09 06:27:53;;;;;;;;;;;;;;;;;;5009896;28;90864;-75
2023/06/09 06:30:19;;;;;;;;;;;;;;;;;;5013394;28;89049;-75
2023/06/09 06:32:51;;;;;;;;;;;;;;;;;;5010536;28;88998;-75
2023/06/09 06:35:26;;;;;;;;;;;;;;;;;;5010911;28;90306;-75
2023/06/09 06:37:51;;;;;;;;;;;;;;;;;;5010807;28;91262;-75
2023/06/09 06:40:17;;;;;;;;;;;;;;;;;;5010218;28;90492;-75
2023/06/09 06:42:42;;;;;;;;;;;;;;;;;;5010818;28;90432;-75
2023/06/09 06:45:07;;;;;;;;;;;;;;;;;;5009947;28;88887;-75
2023/06/09 06:47:33;;;;;;;;;;;;;;;;;;5010120;28;89580;-75
2023/06/09 06:49:58;;;;;;;;;;;;;;;;;;5009173;28;89634;-75
2023/06/09 06:52:23;;;;;;;;;;;;;;;;;;5012390;28;89489;-76
2023/06/09 06:54:48;;;;;;;;;;;;;;;;;;5009258;28;89156;-75
2023/06/09 06:57:14;;;;;;;;;;;;;;;;;;5009750;28;89513;-76
2023/06/09 06:59:39;;;;;;;;;;;;;;;;;;5009376;28;89460;-76
2023/06/09 07:02:04;;;;;;;;;;;;;;;;;;5009508;28;89202;-76
2023/06/09 07:04:29;;;;;;;;;;;;;;;;;;5009245;28;89915;-76
2023/06/09 07:06:55;;;;;;;;;;;;;;;;;;5009549;28;90734;-75
2023/06/09 07:09:20;;;;;;;;;;;;;;;;;;5008861;28;89404;-75
2023/06/09 07:11:45;;;;;;;;;;;;;;;;;;5009479;28;89240;-75
2023/06/09 07:14:11;;;;;;;;;;;;;;;;;;5012202;28;89660;-75
2023/06/09 07:16:36;;;;;;;;;;;;;;;;;;5009744;28;89316;-75
2023/06/09 07:19:01;;;;;;;;;;;;;;;;;;5009565;28;89844;-75
2023/06/09 07:21:29;;;;;;;;;;;;;;;;;;5009924;28;90510;-75
2023/06/09 07:23:54;;;;;;;;;;;;;;;;;;5009622;28;89673;-75
2023/06/09 07:26:19;;;;;;;;;;;;;;;;;;5008659;28;90547;-75
2023/06/09 07:28:44;;;;;;;;;;;;;;;;;;5009027;28;89554;-75
2023/06/09 07:31:11;;;;;;;;;;;;;;;;;;5009209;28;89015;-75
2023/06/09 07:33:37;;;;;;;;;;;;;;;;;;5008758;28;89304;-76
2023/06/09 07:36:02;;;;;;;;;;;;;;;;;;5011610;28;90425;-75
2023/06/09 07:38:28;;;;;;;;;;;;;;;;;;5007744;28;89563;-75
2023/06/09 07:40:53;;;;;;;;;;;;;;;;;;5008826;28;90089;-75
2023/06/09 07:43:18;;;;;;;;;;;;;;;;;;5007810;28;89538;-75
2023/06/09 07:45:45;;;;;;;;;;;;;;;;;;5008956;28;89620;-75
2023/06/09 07:48:10;;;;;;;;;;;;;;;;;;5009312;28;90220;-75
2023/06/09 07:50:36;;;;;;;;;;;;;;;;;;5009172;28;88966;-75
2023/06/09 07:53:01;;;;;;;;;;;;;;;;;;5009111;28;90496;-75
2023/06/09 07:55:26;;;;;;;;;;;;;;;;;;5012328;28;89492;-75
2023/06/09 07:57:51;;;;;;;;;;;;;;;;;;5009388;28;90193;-75
2023/06/09 08:00:17;;;;;;;;;;;;;;;;;;5009174;28;90159;-75
2023/06/09 08:02:42;;;;;;;;;;;;;;;;;;5007852;28;90842;-75
2023/06/09 08:05:09;;;;;;;;;;;;;;;;;;5009083;28;90812;-75
2023/06/09 08:07:34;;;;;;;;;;;;;;;;;;5009193;28;89403;-76
2023/06/09 08:09:59;;;;;;;;;;;;;;;;;;5008761;28;89507;-74
2023/06/09 08:12:25;;;;;;;;;;;;;;;;;;5008647;28;89603;-75
2023/06/09 08:14:50;;;;;;;;;;;;;;;;;;5008703;28;89935;-75
2023/06/09 08:17:15;;;;;;;;;;;;;;;;;;5012359;28;89006;-75
2023/06/09 08:19:40;;;;;;;;;;;;;;;;;;5008922;28;89085;-75
2023/06/09 08:22:05;;;;;;;;;;;;;;;;;;5009470;28;89525;-75
2023/06/09 08:24:31;;;;;;;;;;;;;;;;;;5008335;28;89486;-75
2023/06/09 08:26:58;;;;;;;;;;;;;;;;;;5008429;28;90297;-75
2023/06/09 08:29:23;;;;;;;;;;;;;;;;;;5004511;28;90651;-75
2023/06/09 08:31:48;;;;;;;;;;;;;;;;;;4988847;28;90333;-75
2023/06/09 08:34:13;;;;;;;;;;;;;;;;;;4988029;28;90788;-75
2023/06/09 08:36:39;;;;;;;;;;;;;;;;;;4989264;28;90455;-75
2023/06/09 08:39:04;;;;;;;;;;;;;;;;;;4991683;28;89464;-76
2023/06/09 08:41:34;;;;;;;;;;;;;;;;;;4988634;28;89042;-76
2023/06/09 08:43:59;;;;;;;;;;;;;;;;;;4989274;28;90671;-75
2023/06/09 08:46:25;;;;;;;;;;;;;;;;;;4988540;28;89132;-75
2023/06/09 08:48:53;;;;;;;;;;;;;;;;;;4988981;28;89523;-75
2023/06/09 08:51:21;;;;;;;;;;;;;;;;;;4986805;28;92385;-75
2023/06/09 08:53:48;;;;;;;;;;;;;;;;;;4987762;28;89170;-75
2023/06/09 08:56:13;;;;;;;;;;;;;;;;;;4988216;28;90002;-75
2023/06/09 08:58:39;;;;;;;;;;;;;;;;;;4988696;28;90710;-75
2023/06/09 09:01:04;;;;;;;;;;;;;;;;;;4991026;28;90079;-75
2023/06/09 09:03:30;;;;;;;;;;;;;;;;;;4986700;28;89706;-75
2023/06/09 09:05:55;;;;;;;;;;;;;;;;;;4987167;28;89416;-75
2023/06/09 09:08:20;;;;;;;;;;;;;;;;;;4988306;28;89594;-75
2023/06/09 09:10:46;;;;;;;;;;;;;;;;;;4988067;28;89007;-75
2023/06/09 09:13:12;;;;;;;;;;;;;;;;;;4987154;28;89699;-75
2023/06/09 09:15:45;;;;;;;;;;;;;;;;;;4987220;28;89092;-75
2023/06/09 09:18:10;;;;;;;;;;;;;;;;;;4988315;28;90149;-75
2023/06/09 09:20:36;;;;;;;;;;;;;;;;;;4988348;28;90360;-75
2023/06/09 09:23:03;;;;;;;;;;;;;;;;;;4990310;28;89029;-75
2023/06/09 09:25:29;;;;;;;;;;;;;;;;;;4987961;28;89438;-75
2023/06/09 09:28:04;;;;;;;;;;;;;;;;;;4993116;28;88973;-75
2023/06/09 09:30:43;;;;;;;;;;;;;;;;;;5007236;28;90696;-75
2023/06/09 09:33:12;;;;;;;;;;;;;;;;;;5008093;28;90212;-75
2023/06/09 09:35:43;;;;;;;;;;;;;;;;;;5006370;28;90384;-75
2023/06/09 09:38:16;;;;;;;;;;;;;;;;;;5007888;28;89454;-75
2023/06/09 09:40:43;;;;;;;;;;;;;;;;;;5007267;28;90293;-75
2023/06/09 09:43:10;;;;;;;;;;;;;;;;;;5007156;28;89778;-76
2023/06/09 09:45:37;;;;;;;;;;;;;;;;;;5010090;28;89548;-76
2023/06/09 09:48:10;;;;;;;;;;;;;;;;;;5006766;28;89451;-75
2023/06/09 09:50:36;;;;;;;;;;;;;;;;;;5007270;28;90804;-75
2023/06/09 09:53:02;;;;;;;;;;;;;;;;;;5007252;28;90189;-73
2023/06/09 09:55:28;;;;;;;;;;;;;;;;;;5007098;28;89946;-75
2023/06/09 09:57:53;;;;;;;;;;;;;;;;;;5007263;28;89571;-75
2023/06/09 10:00:19;;;;;;;;;;;;;;;;;;5007536;28;89280;-75
2023/06/09 10:02:46;;;;;;;;;;;;;;;;;;5006752;28;89314;-75
2023/06/09 10:05:14;;;;;;;;;;;;;;;;;;5009859;28;90772;-75
2023/06/09 10:07:42;;;;;;;;;;;;;;;;;;5007175;28;89042;-75
2023/06/09 10:10:11;;;;;;;;;;;;;;;;;;5007218;28;89550;-75
2023/06/09 10:12:37;;;;;;;;;;;;;;;;;;5006270;28;90324;-75
2023/06/09 10:15:02;;;;;;;;;;;;;;;;;;5006156;28;89693;-75
2023/06/09 10:17:28;;;;;;;;;;;;;;;;;;5006462;28;89537;-76
2023/06/09 10:19:53;;;;;;;;;;;;;;;;;;5005913;28;90112;-76
2023/06/09 10:22:19;;;;;;;;;;;;;;;;;;5006558;28;89946;-75
2023/06/09 10:24:46;;;;;;;;;;;;;;;;;;5007053;28;89490;-75
2023/06/09 10:27:12;;;;;;;;;;;;;;;;;;5009408;28;90195;-75
2023/06/09 10:29:38;;;;;;;;;;;;;;;;;;5005393;28;92536;-75
2023/06/09 10:32:03;;;;;;;;;;;;;;;;;;5006863;28;89415;-75
2023/06/09 10:34:31;;;;;;;;;;;;;;;;;;5006847;28;90151;-75
2023/06/09 10:36:57;;;;;;;;;;;;;;;;;;5006814;28;89593;-74
2023/06/09 10:39:25;;;;;;;;;;;;;;;;;;5006846;28;90165;-75
2023/06/09 10:41:53;;;;;;;;;;;;;;;;;;5006548;28;88969;-76
2023/06/09 10:44:19;;;;;;;;;;;;;;;;;;5006146;28;89594;-76
2023/06/09 10:46:45;;;;;;;;;;;;;;;;;;5006948;28;89143;-75
2023/06/09 10:49:25;;;;;;;;;;;;;;;;;;5009579;28;89022;-76
2023/06/09 10:51:54;;;;;;;;;;;;;;;;;;5006279;28;89567;-76
2023/06/09 10:54:21;;;;;;;;;;;;;;;;;;5006560;28;89594;-75
2023/06/09 10:56:52;;;;;;;;;;;;;;;;;;5006804;28;89763;-75
2023/06/09 10:59:23;;;;;;;;;;;;;;;;;;5009666;28;89553;-74
2023/06/09 11:02:01;;;;;;;;;;;;;;;;;;5010108;28;89059;-75
2023/06/09 11:04:43;;;;;;;;;;;;;;;;;;5009387;28;90726;-76
2023/06/09 11:07:19;;;;;;;;;;;;;;;;;;5009844;28;90364;-75
2023/06/09 11:09:44;;;;;;;;;;;;;;;;;;5010375;28;89523;-75
2023/06/09 11:12:20;;;;;;;;;;;;;;;;;;5013210;28;89651;-75
2023/06/09 11:14:46;;;;;;;;;;;;;;;;;;4997120;28;90860;-73
2023/06/09 11:17:14;;;;;;;;;;;;;;;;;;5005501;28;91402;-75
2023/06/09 11:19:39;;;;;;;;;;;;;;;;;;5006953;28;90084;-74
2023/06/09 11:22:05;;;;;;;;;;;;;;;;;;4998850;28;89614;-75
2023/06/09 11:24:46;;;;;;;;;;;;;;;;;;5005370;28;90703;-75
2023/06/09 11:27:18;;;;;;;;;;;;;;;;;;5008986;28;90249;-75
2023/06/09 11:29:43;;;;;;;;;;;;;;;;;;5006645;28;89714;-76
2023/06/09 11:32:09;;;;;;;;;;;;;;;;;;5007581;28;89066;-75
2023/06/09 11:34:55;;;;;;;;;;;;;;;;;;5006718;28;89922;-75
2023/06/09 11:37:21;;;;;;;;;;;;;;;;;;5004811;28;89548;-76
2023/06/09 11:39:46;;;;;;;;;;;;;;;;;;5000861;28;89907;-75
2023/06/09 11:42:11;;;;;;;;;;;;;;;;;;5001766;28;89674;-77
2023/06/09 11:44:37;;;;;;;;;;;;;;;;;;4997832;28;91020;-77
2023/06/09 11:47:22;;;;;;;;;;;;;;;;;;4990376;28;89795;-77
2023/06/09 11:49:57;;;;;;;;;;;;;;;;;;4995749;28;90551;-77
2023/06/09 11:52:22;;;;;;;;;;;;;;;;;;5003430;28;90183;-79
2023/06/09 11:54:48;;;;;;;;;;;;;;;;;;5005512;28;91104;-75
2023/06/09 11:57:15;;;;;;;;;;;;;;;;;;5005525;28;90239;-75
2023/06/09 11:59:40;;;;;;;;;;;;;;;;;;5003396;28;90224;-76
2023/06/09 12:02:06;;;;;;;;;;;;;;;;;;5003356;28;89118;-75
2023/06/09 12:04:31;;;;;;;;;;;;;;;;;;4999705;28;93223;-77
2023/06/09 12:06:56;;;;;;;;;;;;;;;;;;5004635;28;89771;-76
2023/06/09 12:09:22;;;;;;;;;;;;;;;;;;5001344;28;89668;-76
2023/06/09 12:11:49;;;;;;;;;;;;;;;;;;5003218;28;90657;-75
2023/06/09 12:14:14;;;;;;;;;;;;;;;;;;5001330;28;89673;-74
2023/06/09 12:16:40;;;;;;;;;;;;;;;;;;5004460;28;89135;-75
2023/06/09 12:19:05;;;;;;;;;;;;;;;;;;4993768;28;90620;-76
2023/06/09 12:21:33;;;;;;;;;;;;;;;;;;4998577;28;89607;-76
2023/06/09 12:23:58;;;;;;;;;;;;;;;;;;5001660;28;89499;-76
2023/06/09 12:26:24;;;;;;;;;;;;;;;;;;4991779;28;91223;-76
2023/06/09 12:28:52;;;;;;;;;;;;;;;;;;5000050;28;89937;-75
2023/06/09 12:31:18;;;;;;;;;;;;;;;;;;5000668;28;90355;-75
2023/06/09 12:33:47;;;;;;;;;;;;;;;;;;4991512;28;89012;-76
2023/06/09 12:36:12;;;;;;;;;;;;;;;;;;5002259;28;89430;-76
2023/06/09 12:38:39;;;;;;;;;;;;;;;;;;5009051;28;90158;-74
2023/06/09 12:41:08;;;;;;;;;;;;;;;;;;5001111;28;90243;-76
2023/06/09 12:43:42;;;;;;;;;;;;;;;;;;5000573;28;89625;-76
2023/06/09 12:46:08;;;;;;;;;;;;;;;;;;4998972;28;89142;-76
2023/06/09 12:48:33;;;;;;;;;;;;;;;;;;4998431;28;90272;-77
2023/06/09 12:50:59;;;;;;;;;;;;;;;;;;4999958;28;90101;-77
2023/06/09 12:53:24;;;;;;;;;;;;;;;;;;4997506;28;90157;-75
2023/06/09 12:55:49;;;;;;;;;;;;;;;;;;5000022;28;89645;-75
2023/06/09 12:58:14;;;;;;;;;;;;;;;;;;4993055;28;90820;-76
2023/06/09 13:00:40;;;;;;;;;;;;;;;;;;5003415;28;89045;-75
2023/06/09 13:03:07;;;;;;;;;;;;;;;;;;4995032;28;90488;-75
2023/06/09 13:05:33;;;;;;;;;;;;;;;;;;4996178;28;90319;-74
2023/06/09 13:07:59;;;;;;;;;;;;;;;;;;4991936;28;89420;-74
2023/06/09 13:10:24;;;;;;;;;;;;;;;;;;4999106;28;90322;-75
2023/06/09 13:12:51;;;;;;;;;;;;;;;;;;4991192;28;90174;-75
2023/06/09 13:15:16;;;;;;;;;;;;;;;;;;4996690;28;89643;-75
2023/06/09 13:17:41;;;;;;;;;;;;;;;;;;4999217;28;90261;-75
2023/06/09 13:20:07;;;;;;;;;;;;;;;;;;5001315;28;91007;-75
2023/06/09 13:22:32;;;;;;;;;;;;;;;;;;4988441;28;89061;-76
2023/06/09 13:24:57;;;;;;;;;;;;;;;;;;4999018;28;89062;-74
2023/06/09 13:27:22;;;;;;;;;;;;;;;;;;4995643;28;89891;-73
2023/06/09 13:29:48;;;;;;;;;;;;;;;;;;4999230;28;89528;-73
2023/06/09 13:32:13;;;;;;;;;;;;;;;;;;4995570;28;89515;-75
2023/06/09 13:34:38;;;;;;;;;;;;;;;;;;4997024;28;89755;-75
2023/06/09 13:37:04;;;;;;;;;;;;;;;;;;4996067;28;89545;-74
2023/06/09 13:39:29;;;;;;;;;;;;;;;;;;4998714;28;90560;-75
2023/06/09 13:41:55;;;;;;;;;;;;;;;;;;4998603;28;89078;-75
2023/06/09 13:44:20;;;;;;;;;;;;;;;;;;5000895;28;89745;-75
2023/06/09 13:46:45;;;;;;;;;;;;;;;;;;5003052;28;89552;-75
2023/06/09 13:49:10;;;;;;;;;;;;;;;;;;5004345;28;90865;-74
2023/06/09 13:51:37;;;;;;;;;;;;;;;;;;5014923;27;90293;-77
2023/06/09 13:54:02;;;;;;;;;;;;;;;;;;5001069;28;89069;-76
2023/06/09 13:56:27;;;;;;;;;;;;;;;;;;5003928;28;90581;-75
2023/06/09 13:58:53;;;;;;;;;;;;;;;;;;4992979;28;91341;-75
2023/06/09 14:01:18;;;;;;;;;;;;;;;;;;4995938;28;89252;-75
2023/06/09 14:03:44;;;;;;;;;;;;;;;;;;5000101;28;89575;-76
2023/06/09 14:06:09;;;;;;;;;;;;;;;;;;5006909;28;89522;-75
2023/06/09 14:08:35;;;;;;;;;;;;;;;;;;5001317;28;90163;-76
2023/06/09 14:11:00;;;;;;;;;;;;;;;;;;5000857;28;89271;-76
2023/06/09 14:13:25;;;;;;;;;;;;;;;;;;5001826;28;89047;-75
2023/06/09 14:15:50;;;;;;;;;;;;;;;;;;5001045;28;89550;-74
2023/06/09 14:18:16;;;;;;;;;;;;;;;;;;4999574;28;90529;-75
2023/06/09 14:20:41;;;;;;;;;;;;;;;;;;5003523;28;89511;-74
2023/06/09 14:23:08;;;;;;;;;;;;;;;;;;5001846;28;90545;-76
2023/06/09 14:25:34;;;;;;;;;;;;;;;;;;4999582;28;90287;-74
2023/06/09 14:28:00;;;;;;;;;;;;;;;;;;4998799;28;89539;-76
2023/06/09 14:30:26;;;;;;;;;;;;;;;;;;4995425;28;90522;-75
2023/06/09 14:32:51;;;;;;;;;;;;;;;;;;4999826;28;89758;-75
2023/06/09 14:35:22;;;;;;;;;;;;;;;;;;4993487;28;90839;-72
2023/06/09 14:37:48;;;;;;;;;;;;;;;;;;4996187;28;90400;-74
2023/06/09 14:40:13;;;;;;;;;;;;;;;;;;4994007;28;89651;-74
2023/06/09 14:42:38;;;;;;;;;;;;;;;;;;4996500;28;90140;-74
2023/06/09 14:45:04;;;;;;;;;;;;;;;;;;5001041;28;90202;-73
2023/06/09 14:47:29;;;;;;;;;;;;;;;;;;5002994;28;89088;-74
2023/06/09 14:49:54;;;;;;;;;;;;;;;;;;4995473;28;89873;-75
2023/06/09 14:52:19;;;;;;;;;;;;;;;;;;5000626;28;89582;-76
2023/06/09 14:54:45;;;;;;;;;;;;;;;;;;4998567;28;89808;-72
2023/06/09 14:57:10;;;;;;;;;;;;;;;;;;4998457;28;90112;-74
2023/06/09 14:59:35;;;;;;;;;;;;;;;;;;4992215;28;89310;-73
2023/06/09 15:02:00;;;;;;;;;;;;;;;;;;4990178;28;89598;-74
2023/06/09 15:04:26;;;;;;;;;;;;;;;;;;4994219;28;89343;-74
2023/06/09 15:06:51;;;;;;;;;;;;;;;;;;4991293;28;89031;-79
2023/06/09 15:09:16;;;;;;;;;;;;;;;;;;4997243;28;89504;-75
2023/06/09 15:11:41;;;;;;;;;;;;;;;;;;5003096;28;89198;-75
2023/06/09 15:14:06;;;;;;;;;;;;;;;;;;5000287;28;89527;-76
2023/06/09 15:16:31;;;;;;;;;;;;;;;;;;5002131;28;89463;-74
2023/06/09 15:18:58;;;;;;;;;;;;;;;;;;5002771;28;89024;-75
2023/06/09 15:21:23;;;;;;;;;;;;;;;;;;4999560;28;89512;-75
2023/06/09 15:23:48;;;;;;;;;;;;;;;;;;4997483;28;89072;-74
2023/06/09 15:26:13;;;;;;;;;;;;;;;;;;4998065;28;89018;-75
2023/06/09 15:28:38;;;;;;;;;;;;;;;;;;4999064;28;89462;-74
2023/06/09 15:31:04;;;;;;;;;;;;;;;;;;5009058;28;90410;-74
2023/06/09 15:33:29;;;;;;;;;;;;;;;;;;5005002;28;91369;-74
2023/06/09 15:35:55;;;;;;;;;;;;;;;;;;4994719;28;91464;-75
2023/06/09 15:38:22;;;;;;;;;;;;;;;;;;5000613;28;89853;-73
2023/06/09 15:40:48;;;;;;;;;;;;;;;;;;4998306;28;90795;-72
2023/06/09 15:43:15;;;;;;;;;;;;;;;;;;4996375;28;89723;-73
2023/06/09 15:45:41;;;;;;;;;;;;;;;;;;4998006;28;89384;-71
2023/06/09 15:48:07;;;;;;;;;;;;;;;;;;5000840;28;90822;-74
2023/06/09 15:50:32;;;;;;;;;;;;;;;;;;5001387;28;89227;-74
2023/06/09 15:52:57;;;;;;;;;;;;;;;;;;5004391;28;89667;-75
2023/06/09 15:55:23;;;;;;;;;;;;;;;;;;4998761;28;90207;-72
2023/06/09 15:57:48;;;;;;;;;;;;;;;;;;4997700;28;90251;-73
2023/06/09 16:00:13;;;;;;;;;;;;;;;;;;4997876;28;90022;-73
2023/06/09 16:02:39;;;;;;;;;;;;;;;;;;4996167;28;89587;-74
2023/06/09 16:05:04;;;;;;;;;;;;;;;;;;5003749;28;89962;-74
2023/06/09 16:07:29;;;;;;;;;;;;;;;;;;5002315;28;89585;-74
2023/06/09 16:09:55;;;;;;;;;;;;;;;;;;5005693;28;89283;-75
2023/06/09 16:12:20;;;;;;;;;;;;;;;;;;5002986;28;90295;-73
2023/06/09 16:14:45;;;;;;;;;;;;;;;;;;5005159;28;89340;-72
2023/06/09 16:17:10;;;;;;;;;;;;;;;;;;4995804;28;89210;-72
2023/06/09 16:19:36;;;;;;;;;;;;;;;;;;4999617;28;89694;-78
2023/06/09 16:22:01;;;;;;;;;;;;;;;;;;5005739;28;89910;-74
2023/06/09 16:24:26;;;;;;;;;;;;;;;;;;5000496;28;92704;-72
2023/06/09 16:26:51;;;;;;;;;;;;;;;;;;5004501;28;89564;-74
2023/06/09 16:29:20;;;;;;;;;;;;;;;;;;5005110;28;89346;-73
2023/06/09 16:31:45;;;;;;;;;;;;;;;;;;4999337;28;89424;-73
2023/06/09 16:34:11;;;;;;;;;;;;;;;;;;5005220;28;89715;-76
2023/06/09 16:36:36;;;;;;;;;;;;;;;;;;5002664;28;89595;-74
2023/06/09 16:39:02;;;;;;;;;;;;;;;;;;5001733;28;91056;-76
2023/06/09 16:41:27;;;;;;;;;;;;;;;;;;5003663;28;89561;-76